Time;durP1;ratioP1;P1;durP2;ratioP2;P2;SDS_P1;SDS_P2;PMS_P1;PMS_P2;Temp;Humidity;BMP_temperature;BMP_pressure;BME280_temperature;BME280_humidity;BME280_pressure;Samples;Min_cycle;Max_cycle;Signal;HPM_P1;HPM_P2
2022/01/27 00:01:55;;;;;;;51.00;19.33;;;3.50;99.90;;;;;;5029529;28;20034;-59
2022/01/27 00:05:22;;;;;;;43.75;17.77;;;3.60;99.90;;;;;;5100278;28;20028;-59
2022/01/27 00:09:00;;;;;;;46.55;18.65;;;3.60;99.90;;;;;;5103207;28;20043;-59
2022/01/27 00:12:10;;;;;;;48.67;18.77;;;3.60;99.90;;;;;;5103832;28;20407;-59
2022/01/27 00:15:38;;;;;;;48.13;17.50;;;3.60;99.90;;;;;;5102502;28;20043;-59
2022/01/27 00:19:01;;;;;;;51.13;20.33;;;3.60;99.90;;;;;;5103487;28;20577;-60
2022/01/27 00:22:27;;;;;;;42.40;17.27;;;3.60;99.90;;;;;;5106309;28;20134;-59
2022/01/27 00:25:52;;;;;;;43.60;17.02;;;3.60;99.90;;;;;;5105983;28;20039;-60
2022/01/27 00:29:17;;;;;;;46.63;17.35;;;3.60;99.90;;;;;;5105292;28;20365;-60
2022/01/27 00:32:42;;;;;;;43.70;17.60;;;3.60;99.90;;;;;;5107912;28;20044;-59
2022/01/27 00:36:08;;;;;;;41.47;17.05;;;3.60;99.90;;;;;;5090779;28;20424;-59
2022/01/27 00:39:33;;;;;;;52.35;19.10;;;3.60;99.90;;;;;;5104720;28;20058;-59
2022/01/27 00:42:58;;;;;;;43.92;16.38;;;3.60;99.90;;;;;;5088651;28;20032;-59
2022/01/27 00:46:24;;;;;;;40.13;15.43;;;3.60;99.90;;;;;;5100778;28;20032;-59
2022/01/27 00:49:49;;;;;;;42.13;16.30;;;3.60;99.90;;;;;;5098083;28;20462;-59
2022/01/27 00:57:05;;;;;;;39.00;14.82;;;3.60;99.90;;;;;;5022804;28;20477;-59
2022/01/27 01:00:27;;;;;;;40.08;15.57;;;3.70;99.90;;;;;;5102756;28;20047;-59
2022/01/27 01:03:49;;;;;;;34.05;14.18;;;3.60;99.90;;;;;;5106742;28;20543;-59
2022/01/27 01:07:12;;;;;;;42.00;16.98;;;3.60;99.90;;;;;;5101332;28;20034;-59
2022/01/27 01:21:14;;;;;;;32.97;14.23;;;3.60;99.90;;;;;;4569016;28;15035360;-59
2022/01/27 01:30:49;;;;;;;29.80;13.40;;;3.70;99.90;;;;;;5090661;28;20530;-60
2022/01/27 01:34:14;;;;;;;26.35;11.57;;;3.70;99.90;;;;;;5106545;28;20521;-59
2022/01/27 01:37:42;;;;;;;32.40;13.38;;;3.70;99.90;;;;;;5101527;28;20293;-59
2022/01/27 01:41:06;;;;;;;34.50;13.63;;;3.70;99.90;;;;;;5110540;28;20039;-59
2022/01/27 01:44:32;;;;;;;32.33;13.35;;;3.70;99.90;;;;;;5099814;28;20042;-59
2022/01/27 01:47:57;;;;;;;26.92;11.98;;;3.70;99.90;;;;;;5105730;28;20059;-60
2022/01/27 01:51:22;;;;;;;33.67;13.05;;;3.80;99.90;;;;;;5110521;28;20031;-59
2022/01/27 01:54:48;;;;;;;25.95;11.68;;;3.70;99.90;;;;;;5104734;28;20102;-59
2022/01/27 01:58:13;;;;;;;30.58;12.32;;;3.70;99.90;;;;;;5106226;28;20040;-59
2022/01/27 02:01:38;;;;;;;24.50;10.70;;;3.70;99.90;;;;;;5104377;28;20040;-56
2022/01/27 02:05:05;;;;;;;24.55;11.27;;;3.80;99.90;;;;;;5106625;28;20054;-59
2022/01/27 02:08:46;;;;;;;26.05;12.98;;;3.80;99.90;;;;;;5104909;28;20039;-58
2022/01/27 02:18:59;;;;;;;25.80;12.52;;;3.70;99.90;;;;;;5016549;28;20042;-59
2022/01/27 02:22:27;;;;;;;26.65;12.73;;;3.70;99.90;;;;;;5108072;28;20066;-59
2022/01/27 02:25:33;;;;;;;;;;;3.70;99.90;;;;;;5090002;28;20193;-59
2022/01/27 02:28:58;;;;;;;30.52;12.98;;;3.70;99.90;;;;;;5107416;28;20274;-59
2022/01/27 02:32:24;;;;;;;28.98;13.38;;;3.70;99.90;;;;;;5102163;28;20020;-59
2022/01/27 02:35:49;;;;;;;30.85;12.57;;;3.70;99.90;;;;;;5104704;28;20036;-59
2022/01/27 02:39:14;;;;;;;30.27;11.98;;;3.70;99.90;;;;;;5108528;28;20073;-60
2022/01/27 02:42:46;;;;;;;34.00;14.75;;;3.70;99.90;;;;;;5101484;28;20036;-59
2022/01/27 02:46:23;;;;;;;28.50;12.77;;;3.70;99.90;;;;;;5109076;28;20036;-59
2022/01/27 02:49:48;;;;;;;27.17;11.63;;;3.70;99.90;;;;;;5107504;28;20066;-59
2022/01/27 02:53:14;;;;;;;28.02;12.40;;;3.70;99.90;;;;;;5101703;28;20035;-60
2022/01/27 02:56:44;;;;;;;28.65;11.60;;;3.70;99.90;;;;;;5101816;28;20111;-58
2022/01/27 03:00:05;;;;;;;23.58;10.95;;;3.70;99.90;;;;;;5108512;28;20052;-59
2022/01/27 03:03:30;;;;;;;21.40;10.13;;;3.70;99.90;;;;;;5104288;28;20053;-59
2022/01/27 03:06:55;;;;;;;29.23;12.63;;;3.70;99.90;;;;;;5101601;28;20123;-59
2022/01/27 03:10:21;;;;;;;23.50;11.65;;;3.70;99.90;;;;;;5109257;28;20038;-60
2022/01/27 03:13:46;;;;;;;32.25;12.73;;;3.60;99.90;;;;;;5104827;28;20044;-60
2022/01/27 03:17:11;;;;;;;28.05;12.50;;;3.60;99.90;;;;;;5101347;28;20038;-59
2022/01/27 03:20:39;;;;;;;27.95;12.52;;;3.60;99.90;;;;;;5103305;28;20061;-59
2022/01/27 03:24:02;;;;;;;30.60;13.45;;;3.60;99.90;;;;;;5104831;28;20448;-60
2022/01/27 03:26:48;;;;;;;30.85;12.15;;;3.60;99.90;;;;;;5104069;28;20040;-47
2022/01/27 03:29:17;;;;;;;29.60;12.90;;;3.50;99.90;;;;;;5109259;28;20024;-47
2022/01/27 03:31:42;;;;;;;30.38;12.93;;;3.50;99.90;;;;;;5106643;28;20560;-46
2022/01/27 03:34:08;;;;;;;32.88;14.70;;;3.60;99.90;;;;;;5109082;28;20031;-48
2022/01/27 03:36:33;;;;;;;35.08;14.00;;;3.60;99.90;;;;;;5106903;28;20027;-46
2022/01/27 03:38:59;;;;;;;30.00;12.70;;;3.50;99.90;;;;;;5108845;28;20239;-47
2022/01/27 03:41:31;;;;;;;35.72;15.43;;;3.50;99.90;;;;;;5106847;28;20104;-46
2022/01/27 03:43:56;;;;;;;32.55;13.90;;;3.50;99.90;;;;;;5101751;28;20031;-47
2022/01/27 03:46:22;;;;;;;29.00;13.43;;;3.50;99.90;;;;;;5106735;28;20438;-47
2022/01/27 03:48:47;;;;;;;28.98;13.45;;;3.50;99.90;;;;;;5109258;28;20049;-48
2022/01/27 03:51:13;;;;;;;28.85;12.15;;;3.50;99.90;;;;;;5106623;28;20035;-48
2022/01/27 03:53:38;;;;;;;34.30;14.55;;;3.50;99.90;;;;;;5108979;28;20024;-47
2022/01/27 03:56:04;;;;;;;32.85;16.25;;;3.50;99.90;;;;;;5106625;28;20045;-48
2022/01/27 03:58:30;;;;;;;31.25;13.43;;;3.50;99.90;;;;;;5108874;28;20027;-46
2022/01/27 04:00:55;;;;;;;28.52;13.43;;;3.50;99.90;;;;;;5108617;28;20110;-46
2022/01/27 04:03:22;;;;;;;33.00;14.27;;;3.50;99.90;;;;;;5106833;28;20495;-47
2022/01/27 04:05:54;;;;;;;34.22;14.50;;;3.50;99.90;;;;;;5108701;28;20054;-45
2022/01/27 04:08:20;;;;;;;30.90;13.38;;;3.50;99.90;;;;;;5106564;28;20057;-47
2022/01/27 04:10:47;;;;;;;31.55;14.43;;;3.50;99.90;;;;;;5108759;28;20024;-46
2022/01/27 04:13:13;;;;;;;36.88;16.95;;;3.50;99.90;;;;;;5091091;28;20027;-46
2022/01/27 04:15:42;;;;;;;33.75;16.10;;;3.50;99.90;;;;;;5111688;28;20043;-46
2022/01/27 04:18:09;;;;;;;31.65;14.75;;;3.50;99.90;;;;;;5110198;28;20048;-47
2022/01/27 04:20:36;;;;;;;31.13;14.98;;;3.50;99.90;;;;;;5112060;28;20411;-49
2022/01/27 04:23:01;;;;;;;22.40;11.15;;;3.50;99.90;;;;;;5093009;28;20118;-46
2022/01/27 04:25:26;;;;;;;27.88;13.88;;;3.50;99.90;;;;;;5111379;28;20329;-46
2022/01/27 04:27:56;;;;;;;32.83;13.68;;;3.50;99.90;;;;;;5110348;28;20040;-47
2022/01/27 04:30:24;;;;;;;36.33;15.25;;;3.50;99.90;;;;;;5111905;28;20430;-46
2022/01/27 04:32:54;;;;;;;27.40;12.68;;;3.50;99.90;;;;;;5094277;28;20031;-46
2022/01/27 04:35:21;;;;;;;32.75;14.25;;;3.50;99.90;;;;;;5112084;28;20506;-46
2022/01/27 04:38:38;;;;;;;27.98;13.02;;;3.50;99.90;;;;;;5110062;28;20052;-45
2022/01/27 04:41:06;;;;;;;29.77;12.70;;;3.50;99.90;;;;;;5080976;28;20491;-50
2022/01/27 04:43:46;;;;;;;34.40;14.48;;;3.50;99.90;;;;;;5102697;28;20039;-47
2022/01/27 04:48:56;;;;;;;27.00;12.13;;;3.50;99.90;;;;;;5112026;28;20031;-47
2022/01/27 04:51:23;;;;;;;29.13;14.48;;;3.50;99.90;;;;;;5092977;28;20027;-45
2022/01/27 04:53:57;;;;;;;28.02;12.77;;;3.50;99.90;;;;;;5111604;28;20482;-46
2022/01/27 04:56:25;;;;;;;28.95;13.90;;;3.40;99.90;;;;;;5092814;28;20051;-50
2022/01/27 04:58:55;;;;;;;27.15;14.25;;;3.50;99.90;;;;;;5111904;28;20036;-46
2022/01/27 05:01:27;;;;;;;26.98;12.80;;;3.50;99.90;;;;;;5092644;28;20031;-46
2022/01/27 05:04:00;;;;;;;22.60;11.40;;;3.50;99.90;;;;;;5111707;28;20031;-46
2022/01/27 05:06:26;;;;;;;26.45;14.07;;;3.50;99.90;;;;;;5093364;28;20031;-47
2022/01/27 05:08:51;;;;;;;24.80;12.40;;;3.60;99.90;;;;;;5111380;28;20076;-49
2022/01/27 05:11:26;;;;;;;21.00;10.65;;;3.60;99.90;;;;;;5109585;28;20499;-47
2022/01/27 05:14:02;;;;;;;25.67;11.63;;;3.60;99.90;;;;;;5111374;28;20015;-47
2022/01/27 05:16:28;;;;;;;23.38;10.82;;;3.70;99.90;;;;;;5093009;28;20039;-48
2022/01/27 05:18:54;;;;;;;19.45;9.93;;;3.70;99.90;;;;;;5105258;28;20115;-47
2022/01/27 05:21:20;;;;;;;21.63;10.40;;;3.70;99.90;;;;;;5111799;28;20026;-47
2022/01/27 05:23:45;;;;;;;24.27;10.43;;;3.70;99.90;;;;;;5108120;28;20023;-47
2022/01/27 05:26:11;;;;;;;19.02;9.88;;;3.80;99.90;;;;;;5111384;28;20085;-46
2022/01/27 05:28:36;;;;;;;20.48;10.82;;;3.80;99.90;;;;;;5109271;28;20028;-48
2022/01/27 05:31:02;;;;;;;19.25;10.13;;;3.80;99.90;;;;;;5111419;28;20395;-48
2022/01/27 05:33:27;;;;;;;14.70;8.90;;;3.90;99.90;;;;;;5109064;28;20514;-46
2022/01/27 05:35:53;;;;;;;17.33;9.13;;;3.90;99.90;;;;;;5111304;28;20035;-47
2022/01/27 05:38:18;;;;;;;15.07;8.82;;;3.90;99.90;;;;;;5109203;28;20039;-47
2022/01/27 05:40:44;;;;;;;14.40;8.40;;;4.00;99.90;;;;;;5111175;28;20022;-49
2022/01/27 05:43:11;;;;;;;13.77;8.02;;;4.00;99.90;;;;;;5107068;28;20560;-47
2022/01/27 05:45:37;;;;;;;15.60;9.02;;;4.00;99.90;;;;;;5109305;28;20035;-50
2022/01/27 05:48:03;;;;;;;12.02;8.07;;;4.10;99.90;;;;;;5110882;28;20118;-48
2022/01/27 05:50:29;;;;;;;14.07;7.30;;;4.10;99.90;;;;;;5108851;28;20028;-49
2022/01/27 05:52:54;;;;;;;16.17;9.65;;;4.10;99.90;;;;;;5108960;28;20031;-51
2022/01/27 05:55:20;;;;;;;13.18;7.43;;;4.10;99.90;;;;;;5110763;28;20031;-49
2022/01/27 05:57:45;;;;;;;12.20;8.52;;;4.10;99.90;;;;;;5109054;28;20466;-49
2022/01/27 06:00:11;;;;;;;12.00;7.95;;;4.10;99.90;;;;;;5110613;28;20050;-48
2022/01/27 06:02:38;;;;;;;15.60;7.82;;;4.10;99.90;;;;;;5090931;28;20055;-48
2022/01/27 06:05:03;;;;;;;11.65;6.88;;;4.20;99.90;;;;;;5106912;28;20035;-51
2022/01/27 06:08:09;;;;;;;13.70;8.75;;;4.20;99.90;;;;;;5106679;28;20022;-48
2022/01/27 06:11:34;;;;;;;13.15;9.13;;;4.20;99.90;;;;;;5101439;28;20046;-50
2022/01/27 06:14:59;;;;;;;14.57;8.55;;;4.10;99.90;;;;;;5104276;28;20111;-47
2022/01/27 06:18:25;;;;;;;13.15;8.55;;;4.10;99.90;;;;;;5100287;28;20534;-48
2022/01/27 06:21:50;;;;;;;11.52;7.32;;;4.10;99.90;;;;;;5105790;28;20100;-47
2022/01/27 06:24:43;;;;;;;12.48;7.38;;;4.10;99.90;;;;;;5104152;28;20036;-47
2022/01/27 06:27:48;;;;;;;18.08;8.85;;;4.10;99.90;;;;;;5090817;28;20501;-47
2022/01/27 06:31:14;;;;;;;14.52;8.45;;;4.10;99.90;;;;;;5103785;28;20027;-45
2022/01/27 06:34:39;;;;;;;14.88;8.18;;;4.00;99.90;;;;;;5100838;28;20040;-45
2022/01/27 06:38:04;;;;;;;17.15;9.35;;;4.00;99.90;;;;;;5101361;28;20108;-44
2022/01/27 06:41:30;;;;;;;14.52;8.43;;;4.00;99.90;;;;;;5099802;28;20067;-47
2022/01/27 06:44:55;;;;;;;17.33;9.98;;;3.90;99.90;;;;;;5099195;28;20062;-47
2022/01/27 06:48:21;;;;;;;18.13;10.55;;;3.90;99.90;;;;;;5101061;28;20036;-46
2022/01/27 06:51:46;;;;;;;16.00;8.13;;;3.90;99.90;;;;;;5099035;28;20039;-45
2022/01/27 06:55:11;;;;;;;18.48;10.00;;;3.90;99.90;;;;;;5100889;28;20376;-47
2022/01/27 06:58:37;;;;;;;17.85;9.98;;;3.90;99.90;;;;;;5105190;28;20097;-47
2022/01/27 07:02:02;;;;;;;17.15;9.88;;;3.90;99.90;;;;;;5103491;28;20035;-46
2022/01/27 07:05:31;;;;;;;15.07;8.63;;;3.80;99.90;;;;;;5102568;28;20028;-47
2022/01/27 07:08:53;;;;;;;17.67;9.15;;;3.80;99.90;;;;;;5105443;28;20043;-47
2022/01/27 07:11:38;;;;;;;15.80;9.55;;;3.80;99.90;;;;;;5088057;28;20036;-45
2022/01/27 07:14:04;;;;;;;15.45;9.27;;;3.80;99.90;;;;;;5105600;28;20740;-45
2022/01/27 07:16:29;;;;;;;20.60;11.93;;;3.80;99.90;;;;;;5107941;28;20032;-48
2022/01/27 07:18:55;;;;;;;21.73;13.27;;;3.80;99.90;;;;;;5105871;28;20079;-45
2022/01/27 07:21:21;;;;;;;19.83;10.98;;;3.90;99.90;;;;;;5108145;28;20047;-48
2022/01/27 07:24:26;;;;;;;23.23;12.60;;;3.90;99.90;;;;;;5105933;28;20073;-46
2022/01/27 07:27:52;;;;;;;20.08;11.13;;;3.90;99.90;;;;;;5107872;28;20080;-46
2022/01/27 07:31:17;;;;;;;20.80;11.43;;;3.90;99.90;;;;;;5107968;28;20063;-52
2022/01/27 07:34:42;;;;;;;20.17;11.82;;;3.90;99.90;;;;;;5104836;28;20487;-47
2022/01/27 07:38:08;;;;;;;23.08;12.93;;;3.90;99.90;;;;;;5103607;28;20040;-46
2022/01/27 07:41:33;;;;;;;25.63;12.88;;;3.90;99.90;;;;;;5103377;28;20043;-45
2022/01/27 07:44:58;;;;;;;27.42;14.65;;;3.90;99.90;;;;;;5098533;28;20517;-46
2022/01/27 07:48:24;;;;;;;27.80;14.65;;;3.80;99.90;;;;;;5105760;28;20058;-48
2022/01/27 07:51:49;;;;;;;31.17;15.10;;;3.80;99.90;;;;;;5107382;28;20040;-46
2022/01/27 07:55:14;;;;;;;28.52;16.92;;;3.80;99.90;;;;;;5107781;28;20065;-45
2022/01/27 07:58:40;;;;;;;32.67;16.92;;;3.80;99.90;;;;;;5108468;28;20388;-48
2022/01/27 08:02:05;;;;;;;35.67;18.90;;;3.80;99.90;;;;;;5110735;28;20035;-47
2022/01/27 08:05:31;;;;;;;31.67;16.85;;;3.80;99.90;;;;;;5090251;28;20032;-49
2022/01/27 08:08:56;;;;;;;33.03;18.17;;;3.80;99.90;;;;;;5108665;28;20089;-46
2022/01/27 08:12:21;;;;;;;38.22;18.15;;;3.80;99.90;;;;;;5105978;28;20031;-45
2022/01/27 08:15:47;;;;;;;32.55;15.60;;;3.80;99.90;;;;;;5107378;28;20047;-45
2022/01/27 08:19:12;;;;;;;38.97;19.10;;;3.80;99.90;;;;;;5104611;28;20088;-47
2022/01/27 08:22:38;;;;;;;40.85;21.33;;;3.80;99.90;;;;;;5090884;28;20157;-46
2022/01/27 08:26:06;;;;;;;44.03;22.30;;;3.80;99.90;;;;;;5107791;28;20039;-45
2022/01/27 08:29:35;;;;;;;38.65;19.98;;;3.80;99.90;;;;;;5102561;28;20675;-48
2022/01/27 08:33:05;;;;;;;51.22;24.70;;;3.80;99.90;;;;;;5103406;28;20047;-46
2022/01/27 08:36:24;;;;;;;40.15;21.02;;;3.80;99.90;;;;;;5107742;28;20036;-50
2022/01/27 08:39:50;;;;;;;44.08;22.05;;;3.80;99.90;;;;;;5107135;28;20418;-51
2022/01/27 08:43:15;;;;;;;40.97;21.63;;;3.80;99.90;;;;;;5093964;28;20040;-51
2022/01/27 08:46:41;;;;;;;39.13;19.80;;;3.90;99.90;;;;;;5107776;28;20043;-47
2022/01/27 08:50:07;;;;;;;47.92;20.88;;;3.90;99.90;;;;;;5103407;28;20039;-48
2022/01/27 08:53:34;;;;;;;40.88;21.55;;;3.90;99.90;;;;;;5104805;28;20066;-51
2022/01/27 08:56:57;;;;;;;37.85;19.25;;;3.90;99.90;;;;;;5110195;28;20491;-49
2022/01/27 09:00:23;;;;;;;36.78;18.83;;;3.90;99.90;;;;;;5102863;28;20046;-52
2022/01/27 09:03:47;;;;;;;33.33;17.30;;;3.90;99.90;;;;;;5103661;28;20577;-51
2022/01/27 09:07:15;;;;;;;39.67;19.15;;;3.90;99.90;;;;;;5109687;28;20115;-46
2022/01/27 09:10:40;;;;;;;39.47;18.48;;;3.90;99.90;;;;;;5104947;28;20046;-47
2022/01/27 09:14:03;;;;;;;36.90;17.42;;;3.90;99.90;;;;;;5091801;28;20071;-47
2022/01/27 09:17:31;;;;;;;31.27;16.27;;;4.00;99.90;;;;;;5110187;28;20031;-47
2022/01/27 09:20:56;;;;;;;36.30;17.90;;;3.90;99.90;;;;;;5107056;28;20086;-49
2022/01/27 09:24:26;;;;;;;36.33;16.02;;;4.00;99.90;;;;;;5101879;28;20027;-47
2022/01/27 09:27:05;;;;;;;30.90;14.40;;;4.00;99.90;;;;;;5104347;28;20036;-52
2022/01/27 09:29:31;;;;;;;27.85;13.85;;;4.00;99.90;;;;;;5109934;28;20019;-51
2022/01/27 09:31:58;;;;;;;23.52;12.13;;;3.90;99.90;;;;;;5107714;28;20032;-50
2022/01/27 09:34:24;;;;;;;30.13;15.50;;;4.00;99.90;;;;;;5109974;28;20663;-51
2022/01/27 09:36:50;;;;;;;28.15;13.65;;;4.00;99.90;;;;;;5107295;28;20372;-51
2022/01/27 09:39:16;;;;;;;29.15;13.13;;;4.00;99.90;;;;;;5109983;28;20120;-53
2022/01/27 09:41:42;;;;;;;26.85;13.05;;;4.00;99.90;;;;;;5107615;28;20046;-46
2022/01/27 09:44:11;;;;;;;23.92;13.13;;;3.90;99.90;;;;;;5106682;28;20042;-52
2022/01/27 09:46:40;;;;;;;27.40;13.55;;;4.00;99.90;;;;;;5105071;28;20028;-49
2022/01/27 09:49:12;;;;;;;27.73;14.98;;;3.90;99.90;;;;;;5109518;28;20086;-47
2022/01/27 09:51:41;;;;;;;28.08;14.15;;;3.90;99.90;;;;;;5103785;28;20553;-50
2022/01/27 09:54:07;;;;;;;25.88;13.27;;;3.90;99.90;;;;;;5109172;28;20449;-54
2022/01/27 09:56:34;;;;;;;22.77;11.93;;;3.90;99.90;;;;;;5092462;28;20043;-49
2022/01/27 09:59:00;;;;;;;24.92;12.63;;;4.00;99.90;;;;;;5109720;28;20054;-54
2022/01/27 10:02:11;;;;;;;23.92;12.63;;;4.00;99.90;;;;;;5108351;28;20032;-51
2022/01/27 10:05:42;;;;;;;31.50;14.68;;;4.00;99.90;;;;;;5104929;28;20059;-50
2022/01/27 10:09:06;;;;;;;24.42;11.95;;;4.00;99.90;;;;;;5090098;28;20487;-51
2022/01/27 10:12:34;;;;;;;22.17;11.85;;;4.00;99.90;;;;;;5106359;28;20179;-51
2022/01/27 10:15:57;;;;;;;24.70;13.23;;;4.00;99.90;;;;;;5101412;28;20093;-52
2022/01/27 10:19:22;;;;;;;25.55;12.63;;;4.10;99.90;;;;;;5109397;28;20061;-51
2022/01/27 10:22:51;;;;;;;31.00;12.98;;;4.10;99.90;;;;;;5089284;28;20040;-48
2022/01/27 10:25:58;;;;;;;;;;;4.10;99.90;;;;;;5106161;28;20027;-50
2022/01/27 10:29:37;;;;;;;22.67;11.38;;;4.00;99.90;;;;;;5102985;28;19912;-51
2022/01/27 10:33:03;;;;;;;27.50;13.35;;;3.90;99.90;;;;;;5107810;28;20498;-54
2022/01/27 10:36:33;;;;;;;26.88;13.25;;;3.90;99.90;;;;;;5106350;28;20036;-51
2022/01/27 10:39:58;;;;;;;33.80;14.80;;;3.90;99.90;;;;;;5103640;28;20057;-52
2022/01/27 10:43:25;;;;;;;25.70;12.93;;;3.90;99.90;;;;;;5100316;28;20039;-51
2022/01/27 10:46:50;;;;;;;27.83;13.05;;;3.90;99.90;;;;;;5101483;28;20391;-52
2022/01/27 10:50:16;;;;;;;28.88;12.55;;;3.80;99.90;;;;;;5107150;28;20069;-54
2022/01/27 10:53:40;;;;;;;26.95;14.15;;;3.70;99.90;;;;;;5108819;28;20627;-51
2022/01/27 10:57:05;;;;;;;27.75;13.50;;;3.70;99.90;;;;;;5101716;28;20193;-51
2022/01/27 11:00:31;;;;;;;29.40;13.55;;;3.70;99.90;;;;;;5101324;28;20039;-54
2022/01/27 11:03:56;;;;;;;24.83;10.65;;;3.80;99.90;;;;;;5088652;28;20036;-53
2022/01/27 11:07:33;;;;;;;27.75;14.13;;;3.80;99.90;;;;;;5103853;28;20032;-50
2022/01/27 11:10:59;;;;;;;31.48;13.77;;;3.90;99.90;;;;;;5104028;28;20024;-51
2022/01/27 11:14:25;;;;;;;31.73;14.68;;;3.90;99.90;;;;;;5108821;28;20115;-49
2022/01/27 11:17:50;;;;;;;30.70;14.70;;;4.00;99.90;;;;;;5102820;28;20044;-48
2022/01/27 11:21:30;;;;;;;24.98;11.88;;;3.90;99.90;;;;;;5103215;28;20445;-48
2022/01/27 11:28:03;;;;;;;30.63;14.88;;;4.00;99.90;;;;;;5108437;28;20035;-51
2022/01/27 11:31:35;;;;;;;25.80;12.25;;;4.00;99.90;;;;;;5107965;28;20032;-51
2022/01/27 11:35:06;;;;;;;25.55;11.95;;;4.00;99.90;;;;;;5111233;28;20067;-47
2022/01/27 11:38:31;;;;;;;31.50;14.95;;;4.00;99.90;;;;;;5106885;28;20044;-50
2022/01/27 11:42:03;;;;;;;28.23;14.25;;;4.00;99.90;;;;;;5105159;28;20118;-50
2022/01/27 11:45:20;;;;;;;35.15;14.43;;;4.00;99.90;;;;;;5109074;28;20031;-49
2022/01/27 11:48:37;;;;;;;32.40;14.10;;;4.00;99.90;;;;;;5113016;28;20507;-49
2022/01/27 11:52:03;;;;;;;31.95;14.52;;;4.00;99.90;;;;;;5104901;28;20031;-50
2022/01/27 11:55:23;;;;;;;29.85;13.20;;;3.90;99.90;;;;;;5091535;28;20043;-51
2022/01/27 11:59:08;;;;;;;26.80;13.23;;;3.90;99.90;;;;;;5112535;28;20134;-48
2022/01/27 12:02:38;;;;;;;33.40;15.63;;;3.90;99.90;;;;;;5108525;28;20035;-53
2022/01/27 12:06:04;;;;;;;29.98;14.23;;;3.80;99.90;;;;;;5104778;28;20035;-52
2022/01/27 12:09:21;;;;;;;29.17;13.35;;;3.80;99.90;;;;;;5092013;28;20563;-52
2022/01/27 12:12:46;;;;;;;26.92;13.10;;;3.80;99.90;;;;;;5106588;28;20035;-49
2022/01/27 12:19:35;;;;;;;30.33;14.85;;;3.80;99.90;;;;;;5100611;28;20507;-49
2022/01/27 12:22:51;;;;;;;32.72;15.00;;;3.80;99.90;;;;;;5091553;28;20028;-48
2022/01/27 12:26:10;;;;;;;22.80;11.05;;;3.80;99.90;;;;;;5097106;28;20028;-48
2022/01/27 12:29:50;;;;;;;26.38;11.23;;;3.90;99.90;;;;;;5091396;28;20103;-53
2022/01/27 12:33:15;;;;;;;20.85;10.25;;;3.90;99.90;;;;;;5109506;28;20036;-52
2022/01/27 12:36:40;;;;;;;20.95;10.45;;;4.00;99.90;;;;;;5104342;28;20525;-53
2022/01/27 12:40:15;;;;;;;21.02;10.82;;;4.00;99.90;;;;;;5105996;28;20044;-47
2022/01/27 12:43:42;;;;;;;22.92;12.32;;;4.00;99.90;;;;;;5098922;28;20031;-49
2022/01/27 12:47:21;;;;;;;22.80;10.80;;;4.00;99.90;;;;;;5103859;28;20094;-47
2022/01/27 12:50:47;;;;;;;27.55;12.73;;;4.10;99.90;;;;;;5103914;28;20031;-51
2022/01/27 12:54:20;;;;;;;22.55;11.13;;;4.10;99.90;;;;;;5090839;28;20506;-48
2022/01/27 12:57:46;;;;;;;21.40;10.02;;;4.20;99.90;;;;;;5090988;28;20028;-49
2022/01/27 13:01:18;;;;;;;23.95;12.77;;;4.20;99.90;;;;;;5096259;28;20103;-51
2022/01/27 13:04:43;;;;;;;24.02;11.30;;;4.20;99.90;;;;;;5105615;28;20070;-49
2022/01/27 13:08:09;;;;;;;22.90;11.95;;;4.20;99.90;;;;;;5105423;28;20059;-49
2022/01/27 13:11:33;;;;;;;22.35;11.15;;;4.20;99.90;;;;;;5103595;28;20437;-51
2022/01/27 13:15:15;;;;;;;25.88;12.35;;;4.10;99.90;;;;;;5105308;28;20039;-50
2022/01/27 13:18:50;;;;;;;22.88;11.80;;;4.10;99.90;;;;;;5104999;28;20048;-48
2022/01/27 13:22:14;;;;;;;28.27;13.93;;;4.10;99.90;;;;;;5103402;28;20319;-51
2022/01/27 13:25:35;;;;;;;26.83;12.70;;;4.10;99.90;;;;;;5104269;28;20031;-53
2022/01/27 13:29:01;;;;;;;30.70;13.77;;;4.20;99.90;;;;;;5110697;28;20381;-50
2022/01/27 13:32:26;;;;;;;25.42;12.88;;;4.20;99.90;;;;;;5105955;28;20035;-49
2022/01/27 13:35:12;;;;;;;25.27;11.57;;;4.20;99.90;;;;;;5094731;28;20115;-50
2022/01/27 13:37:38;;;;;;;23.60;11.38;;;4.30;99.90;;;;;;5110883;28;20127;-49
2022/01/27 13:44:14;;;;;;;22.67;10.57;;;4.20;99.90;;;;;;5101034;28;20038;-49
2022/01/27 13:47:42;;;;;;;28.23;13.55;;;4.20;99.90;;;;;;5105126;28;20036;-47
2022/01/27 13:50:47;;;;;;;;;;;4.20;99.90;;;;;;5097909;28;20039;-49
2022/01/27 13:54:19;;;;;;;25.15;10.38;;;4.30;99.90;;;;;;5090637;28;19919;-47
2022/01/27 13:57:55;;;;;;;24.45;11.25;;;4.30;99.90;;;;;;5107616;28;20040;-50
2022/01/27 14:01:22;;;;;;;23.52;10.98;;;4.30;99.90;;;;;;5098704;28;20043;-50
2022/01/27 14:04:47;;;;;;;22.23;10.38;;;4.30;99.90;;;;;;5107516;28;20049;-48
2022/01/27 14:08:12;;;;;;;19.25;9.75;;;4.30;99.90;;;;;;5104503;28;20031;-49
2022/01/27 14:11:41;;;;;;;21.70;11.32;;;4.40;99.90;;;;;;5094394;27;20567;-49
2022/01/27 14:15:22;;;;;;;20.90;10.35;;;4.40;99.90;;;;;;5104016;28;20040;-52
2022/01/27 14:18:53;;;;;;;27.15;11.63;;;4.40;99.90;;;;;;5108796;28;20043;-51
2022/01/27 14:22:22;;;;;;;18.85;10.32;;;4.50;99.90;;;;;;5105695;28;20051;-51
2022/01/27 14:25:30;;;;;;;;;;;4.50;99.90;;;;;;5101968;28;20123;-52
2022/01/27 14:28:52;;;;;;;18.17;8.30;;;4.50;99.90;;;;;;5088635;28;19915;-49
2022/01/27 14:32:17;;;;;;;20.08;9.77;;;4.50;99.90;;;;;;5105501;28;20044;-49
2022/01/27 14:35:43;;;;;;;17.88;8.88;;;4.60;99.90;;;;;;5105063;28;20494;-52
2022/01/27 14:39:08;;;;;;;18.02;8.68;;;4.60;99.90;;;;;;5088374;28;20551;-49
2022/01/27 14:42:35;;;;;;;20.50;9.18;;;4.70;99.90;;;;;;5102682;28;20038;-49
2022/01/27 14:45:59;;;;;;;17.45;8.43;;;4.70;99.90;;;;;;5106455;28;20137;-52
2022/01/27 14:49:24;;;;;;;17.48;8.80;;;4.80;99.90;;;;;;5102258;28;20065;-52
2022/01/27 14:52:52;;;;;;;17.35;9.13;;;4.80;99.90;;;;;;5106370;28;20039;-54
2022/01/27 14:56:15;;;;;;;15.20;8.43;;;4.90;99.90;;;;;;5104135;28;20033;-52
2022/01/27 14:59:40;;;;;;;17.10;8.50;;;4.90;99.90;;;;;;5102608;28;20507;-53
2022/01/27 15:03:06;;;;;;;14.68;7.95;;;4.90;99.90;;;;;;5106571;28;20112;-50
2022/01/27 15:06:32;;;;;;;13.77;8.25;;;4.90;99.90;;;;;;5104728;28;20051;-48
2022/01/27 15:09:56;;;;;;;15.63;9.32;;;5.00;99.90;;;;;;5085434;28;20442;-52
2022/01/27 15:13:23;;;;;;;15.77;8.43;;;5.00;99.90;;;;;;5104637;28;20023;-48
2022/01/27 15:19:36;;;;;;;12.88;7.28;;;5.00;99.90;;;;;;5104722;28;20042;-50
2022/01/27 15:22:03;;;;;;;13.65;8.18;;;5.10;99.90;;;;;;5104601;28;20030;-50
2022/01/27 15:24:28;;;;;;;14.02;7.45;;;5.10;99.90;;;;;;5106698;28;20722;-48
2022/01/27 15:26:54;;;;;;;10.45;5.60;;;5.20;99.90;;;;;;5108464;28;20028;-48
2022/01/27 15:29:23;;;;;;;12.02;7.25;;;5.20;99.90;;;;;;5080695;28;20047;-49
2022/01/27 15:31:49;;;;;;;9.57;5.85;;;5.20;99.90;;;;;;5106357;28;20063;-49
2022/01/27 15:34:16;;;;;;;10.52;6.80;;;5.20;99.90;;;;;;5108495;28;20059;-47
2022/01/27 15:36:42;;;;;;;12.05;6.55;;;5.30;99.90;;;;;;5106694;28;20028;-46
2022/01/27 15:39:09;;;;;;;10.50;5.90;;;5.30;99.90;;;;;;5108310;28;20757;-47
2022/01/27 15:41:34;;;;;;;8.95;5.88;;;5.30;99.90;;;;;;5088175;28;20463;-47
2022/01/27 15:44:00;;;;;;;9.07;5.43;;;5.40;99.90;;;;;;5104472;28;20031;-48
2022/01/27 15:46:26;;;;;;;9.90;6.10;;;5.40;99.90;;;;;;5106573;28;20015;-48
2022/01/27 15:48:52;;;;;;;8.60;5.75;;;5.40;99.90;;;;;;5108390;28;20399;-47
2022/01/27 15:51:18;;;;;;;7.68;5.25;;;5.50;99.90;;;;;;5090890;28;20032;-47
2022/01/27 15:54:24;;;;;;;8.98;6.25;;;5.50;99.90;;;;;;5107428;28;20031;-47
2022/01/27 15:57:48;;;;;;;9.43;6.45;;;5.50;99.90;;;;;;5102286;28;20071;-47
2022/01/27 16:01:14;;;;;;;11.18;6.90;;;5.50;99.90;;;;;;5100948;28;20077;-46
2022/01/27 16:04:39;;;;;;;7.63;5.47;;;5.50;99.90;;;;;;5105028;28;20046;-48
2022/01/27 16:08:04;;;;;;;10.85;5.85;;;5.70;99.90;;;;;;5102437;28;20043;-48
2022/01/27 16:11:30;;;;;;;8.90;5.82;;;5.70;99.90;;;;;;5106017;28;20039;-48
2022/01/27 16:14:55;;;;;;;11.18;6.28;;;5.80;99.90;;;;;;5109796;28;20036;-48
2022/01/27 16:18:20;;;;;;;8.60;5.90;;;5.80;99.90;;;;;;5106085;28;20051;-48
2022/01/27 16:21:46;;;;;;;7.97;5.60;;;5.90;99.90;;;;;;5104182;28;20587;-51
2022/01/27 16:25:11;;;;;;;10.23;5.55;;;5.90;99.90;;;;;;5103987;28;20027;-51
2022/01/27 16:28:37;;;;;;;6.88;4.75;;;5.90;99.90;;;;;;5111287;28;20132;-49
2022/01/27 16:32:02;;;;;;;6.10;4.45;;;5.90;99.90;;;;;;5104672;28;20043;-54
2022/01/27 16:35:27;;;;;;;6.03;4.55;;;5.90;99.90;;;;;;5107029;28;20024;-54
2022/01/27 16:38:53;;;;;;;6.10;3.88;;;6.00;99.90;;;;;;5091113;28;20044;-54
2022/01/27 16:42:18;;;;;;;7.03;4.70;;;6.00;99.90;;;;;;5107512;28;20059;-52
2022/01/27 16:45:43;;;;;;;6.15;3.83;;;6.00;99.90;;;;;;5102664;28;20058;-53
2022/01/27 16:49:09;;;;;;;7.43;5.00;;;6.00;99.90;;;;;;5090929;28;20044;-52